sensor_id;sensor_type;location;lat;lon;timestamp;pressure;altitude;pressure_sealevel;temperature;humidity
65758;BME280;52495;52.208;5.158;2023-06-04T00:00:43;102195.34;;;15.80;53.47
65758;BME280;52495;52.208;5.158;2023-06-04T00:03:10;102198.13;;;15.67;53.92
65758;BME280;52495;52.208;5.158;2023-06-04T00:05:37;102191.16;;;15.69;53.97
65758;BME280;52495;52.208;5.158;2023-06-04T00:08:05;102196.13;;;15.83;53.68
65758;BME280;52495;52.208;5.158;2023-06-04T00:10:31;102193.88;;;15.61;53.72
65758;BME280;52495;52.208;5.158;2023-06-04T00:12:59;102188.00;;;15.48;54.13
65758;BME280;52495;52.208;5.158;2023-06-04T00:15:26;102194.88;;;15.53;54.48
65758;BME280;52495;52.208;5.158;2023-06-04T00:17:53;102197.53;;;15.50;54.40
65758;BME280;52495;52.208;5.158;2023-06-04T00:20:22;102189.84;;;15.43;54.49
65758;BME280;52495;52.208;5.158;2023-06-04T00:22:48;102190.72;;;15.42;54.48
65758;BME280;52495;52.208;5.158;2023-06-04T00:25:17;102194.22;;;15.40;54.64
65758;BME280;52495;52.208;5.158;2023-06-04T00:27:44;102192.63;;;15.32;55.05
65758;BME280;52495;52.208;5.158;2023-06-04T00:30:12;102187.56;;;15.22;55.06
65758;BME280;52495;52.208;5.158;2023-06-04T00:32:39;102185.09;;;15.14;55.36
65758;BME280;52495;52.208;5.158;2023-06-04T00:35:07;102197.97;;;15.20;55.27
65758;BME280;52495;52.208;5.158;2023-06-04T00:37:35;102190.34;;;15.09;55.34
65758;BME280;52495;52.208;5.158;2023-06-04T00:40:01;102194.56;;;15.16;55.38
65758;BME280;52495;52.208;5.158;2023-06-04T00:42:30;102194.78;;;15.02;55.92
65758;BME280;52495;52.208;5.158;2023-06-04T00:44:57;102187.69;;;15.14;55.14
65758;BME280;52495;52.208;5.158;2023-06-04T00:47:24;102187.88;;;15.00;55.64
65758;BME280;52495;52.208;5.158;2023-06-04T00:49:54;102193.84;;;15.08;55.51
65758;BME280;52495;52.208;5.158;2023-06-04T00:52:22;102190.47;;;15.01;55.45
65758;BME280;52495;52.208;5.158;2023-06-04T00:54:49;102198.34;;;14.95;56.10
65758;BME280;52495;52.208;5.158;2023-06-04T00:57:17;102198.41;;;14.91;56.18
65758;BME280;52495;52.208;5.158;2023-06-04T00:59:45;102193.22;;;14.89;56.02
65758;BME280;52495;52.208;5.158;2023-06-04T01:02:14;102192.22;;;14.98;55.66
65758;BME280;52495;52.208;5.158;2023-06-04T01:04:54;102198.50;;;14.84;56.20
65758;BME280;52495;52.208;5.158;2023-06-04T01:07:26;102201.09;;;14.84;56.09
65758;BME280;52495;52.208;5.158;2023-06-04T01:09:53;102194.28;;;14.77;55.94
65758;BME280;52495;52.208;5.158;2023-06-04T01:12:21;102196.84;;;14.79;55.98
65758;BME280;52495;52.208;5.158;2023-06-04T01:14:49;102191.78;;;14.68;56.19
65758;BME280;52495;52.208;5.158;2023-06-04T01:17:19;102196.91;;;14.72;56.05
65758;BME280;52495;52.208;5.158;2023-06-04T01:20:07;102190.09;;;14.62;56.28
65758;BME280;52495;52.208;5.158;2023-06-04T01:22:41;102193.50;;;14.67;55.43
65758;BME280;52495;52.208;5.158;2023-06-04T01:25:12;102191.78;;;14.68;55.22
65758;BME280;52495;52.208;5.158;2023-06-04T01:27:47;102203.13;;;14.57;55.54
65758;BME280;52495;52.208;5.158;2023-06-04T01:30:17;102196.22;;;14.55;55.64
65758;BME280;52495;52.208;5.158;2023-06-04T01:32:45;102193.63;;;14.56;55.13
65758;BME280;52495;52.208;5.158;2023-06-04T01:35:13;102202.28;;;14.54;54.91
65758;BME280;52495;52.208;5.158;2023-06-04T01:37:40;102201.50;;;14.47;55.16
65758;BME280;52495;52.208;5.158;2023-06-04T01:40:08;102202.38;;;14.48;55.16
65758;BME280;52495;52.208;5.158;2023-06-04T01:42:35;102206.78;;;14.41;55.08
65758;BME280;52495;52.208;5.158;2023-06-04T01:45:02;102200.72;;;14.40;54.85
65758;BME280;52495;52.208;5.158;2023-06-04T01:47:30;102202.59;;;14.29;54.81
65758;BME280;52495;52.208;5.158;2023-06-04T01:49:57;102201.53;;;14.44;54.44
65758;BME280;52495;52.208;5.158;2023-06-04T01:52:24;102197.47;;;14.21;54.84
65758;BME280;52495;52.208;5.158;2023-06-04T01:54:51;102201.78;;;14.24;54.99
65758;BME280;52495;52.208;5.158;2023-06-04T01:57:18;102194.94;;;14.17;55.01
65758;BME280;52495;52.208;5.158;2023-06-04T01:59:46;102190.63;;;14.16;54.58
65758;BME280;52495;52.208;5.158;2023-06-04T02:02:14;102194.97;;;14.14;54.59
65758;BME280;52495;52.208;5.158;2023-06-04T02:04:42;102196.72;;;14.11;55.12
65758;BME280;52495;52.208;5.158;2023-06-04T02:07:10;102193.28;;;14.08;55.07
65758;BME280;52495;52.208;5.158;2023-06-04T02:09:39;102197.63;;;14.09;54.56
65758;BME280;52495;52.208;5.158;2023-06-04T02:12:07;102195.00;;;14.10;55.01
65758;BME280;52495;52.208;5.158;2023-06-04T02:14:38;102195.84;;;14.13;54.42
65758;BME280;52495;52.208;5.158;2023-06-04T02:17:07;102196.75;;;14.08;54.40
65758;BME280;52495;52.208;5.158;2023-06-04T02:19:38;102193.28;;;14.08;54.32
65758;BME280;52495;52.208;5.158;2023-06-04T02:22:11;102193.41;;;13.97;54.49
65758;BME280;52495;52.208;5.158;2023-06-04T02:24:41;102195.13;;;13.96;54.40
65758;BME280;52495;52.208;5.158;2023-06-04T02:27:08;102191.72;;;13.91;54.62
65758;BME280;52495;52.208;5.158;2023-06-04T02:29:36;102199.53;;;13.88;54.41
65758;BME280;52495;52.208;5.158;2023-06-04T02:32:04;102204.69;;;13.90;54.24
65758;BME280;52495;52.208;5.158;2023-06-04T02:34:31;102198.59;;;13.97;54.05
65758;BME280;52495;52.208;5.158;2023-06-04T02:36:59;102201.25;;;13.88;53.74
65758;BME280;52495;52.208;5.158;2023-06-04T02:39:27;102203.09;;;13.76;54.84
65758;BME280;52495;52.208;5.158;2023-06-04T02:41:54;102200.44;;;13.81;54.22
65758;BME280;52495;52.208;5.158;2023-06-04T02:44:21;102197.84;;;13.81;53.99
65758;BME280;52495;52.208;5.158;2023-06-04T02:46:48;102198.69;;;13.85;54.09
65758;BME280;52495;52.208;5.158;2023-06-04T02:49:15;102196.06;;;13.89;53.86
65758;BME280;52495;52.208;5.158;2023-06-04T02:51:42;102200.47;;;13.78;54.41
65758;BME280;52495;52.208;5.158;2023-06-04T02:54:10;102190.16;;;13.72;54.38
65758;BME280;52495;52.208;5.158;2023-06-04T02:56:38;102197.06;;;13.71;54.47
65758;BME280;52495;52.208;5.158;2023-06-04T02:59:06;102200.59;;;13.65;54.59
65758;BME280;52495;52.208;5.158;2023-06-04T03:01:34;102199.69;;;13.68;54.54
65758;BME280;52495;52.208;5.158;2023-06-04T03:04:04;102199.81;;;13.57;54.94
65758;BME280;52495;52.208;5.158;2023-06-04T03:06:35;102198.06;;;13.55;55.01
65758;BME280;52495;52.208;5.158;2023-06-04T03:09:03;102203.31;;;13.50;55.25
65758;BME280;52495;52.208;5.158;2023-06-04T03:11:30;102200.78;;;13.34;55.97
65758;BME280;52495;52.208;5.158;2023-06-04T03:13:58;102194.75;;;13.32;55.92
65758;BME280;52495;52.208;5.158;2023-06-04T03:16:25;102195.66;;;13.27;56.60
65758;BME280;52495;52.208;5.158;2023-06-04T03:18:52;102189.63;;;13.21;56.44
65758;BME280;52495;52.208;5.158;2023-06-04T03:21:18;102196.53;;;13.26;57.13
65758;BME280;52495;52.208;5.158;2023-06-04T03:23:45;102189.66;;;13.20;56.98
65758;BME280;52495;52.208;5.158;2023-06-04T03:26:12;102194.88;;;13.14;57.92
65758;BME280;52495;52.208;5.158;2023-06-04T03:28:39;102196.63;;;13.07;58.01
65758;BME280;52495;52.208;5.158;2023-06-04T03:31:09;102195.78;;;13.05;58.83
65758;BME280;52495;52.208;5.158;2023-06-04T03:33:36;102196.66;;;13.01;59.02
65758;BME280;52495;52.208;5.158;2023-06-04T03:36:03;102183.72;;;12.96;59.43
65758;BME280;52495;52.208;5.158;2023-06-04T03:38:30;102195.84;;;12.94;59.76
65758;BME280;52495;52.208;5.158;2023-06-04T03:40:58;102199.34;;;12.84;60.45
65758;BME280;52495;52.208;5.158;2023-06-04T03:43:25;102197.63;;;12.86;60.30
65758;BME280;52495;52.208;5.158;2023-06-04T03:45:56;102196.72;;;12.92;60.89
65758;BME280;52495;52.208;5.158;2023-06-04T03:48:24;102199.38;;;12.79;61.07
65758;BME280;52495;52.208;5.158;2023-06-04T03:50:51;102191.56;;;12.84;61.27
65758;BME280;52495;52.208;5.158;2023-06-04T03:53:19;102197.66;;;12.73;61.64
65758;BME280;52495;52.208;5.158;2023-06-04T03:55:46;102196.81;;;12.67;62.08
65758;BME280;52495;52.208;5.158;2023-06-04T03:58:13;102197.69;;;12.70;62.06
65758;BME280;52495;52.208;5.158;2023-06-04T04:00:44;102195.06;;;12.77;62.62
65758;BME280;52495;52.208;5.158;2023-06-04T04:03:12;102196.78;;;12.79;62.50
65758;BME280;52495;52.208;5.158;2023-06-04T04:05:41;102205.44;;;12.72;62.90
65758;BME280;52495;52.208;5.158;2023-06-04T04:08:08;102204.56;;;12.74;63.30
65758;BME280;52495;52.208;5.158;2023-06-04T04:10:35;102208.88;;;12.75;63.22
65758;BME280;52495;52.208;5.158;2023-06-04T04:13:03;102207.13;;;12.84;63.78
65758;BME280;52495;52.208;5.158;2023-06-04T04:15:33;102196.81;;;12.70;63.57
65758;BME280;52495;52.208;5.158;2023-06-04T04:18:02;102202.84;;;12.75;64.07
65758;BME280;52495;52.208;5.158;2023-06-04T04:20:29;102208.88;;;12.72;64.37
65758;BME280;52495;52.208;5.158;2023-06-04T04:23:02;102201.13;;;12.71;64.22
65758;BME280;52495;52.208;5.158;2023-06-04T04:25:30;102201.09;;;12.75;64.47
65758;BME280;52495;52.208;5.158;2023-06-04T04:27:59;102201.97;;;12.78;64.75
65758;BME280;52495;52.208;5.158;2023-06-04T04:30:28;102199.41;;;12.70;65.01
65758;BME280;52495;52.208;5.158;2023-06-04T04:32:59;102200.22;;;12.80;64.91
65758;BME280;52495;52.208;5.158;2023-06-04T04:35:33;102209.69;;;12.85;64.88
65758;BME280;52495;52.208;5.158;2023-06-04T04:38:02;102203.59;;;12.94;65.35
65758;BME280;52495;52.208;5.158;2023-06-04T04:40:32;102201.91;;;12.92;65.49
65758;BME280;52495;52.208;5.158;2023-06-04T04:43:00;102196.72;;;12.95;65.61
65758;BME280;52495;52.208;5.158;2023-06-04T04:45:27;102204.50;;;12.92;65.90
65758;BME280;52495;52.208;5.158;2023-06-04T04:47:58;102201.84;;;13.01;65.71
65758;BME280;52495;52.208;5.158;2023-06-04T04:50:25;102201.00;;;13.03;65.65
65758;BME280;52495;52.208;5.158;2023-06-04T04:52:52;102197.53;;;13.01;65.83
65758;BME280;52495;52.208;5.158;2023-06-04T04:55:20;102197.53;;;13.01;66.09
65758;BME280;52495;52.208;5.158;2023-06-04T04:57:49;102203.53;;;13.10;66.15
65758;BME280;52495;52.208;5.158;2023-06-04T05:00:17;102202.63;;;13.15;65.97
65758;BME280;52495;52.208;5.158;2023-06-04T05:02:48;102203.47;;;13.22;65.97
65758;BME280;52495;52.208;5.158;2023-06-04T05:05:15;102205.19;;;13.23;66.29
65758;BME280;52495;52.208;5.158;2023-06-04T05:07:44;102212.09;;;13.26;66.38
65758;BME280;52495;52.208;5.158;2023-06-04T05:10:11;102215.50;;;13.32;66.29
65758;BME280;52495;52.208;5.158;2023-06-04T05:12:39;102211.16;;;13.41;66.43
65758;BME280;52495;52.208;5.158;2023-06-04T05:15:17;102212.00;;;13.44;66.14
65758;BME280;52495;52.208;5.158;2023-06-04T05:17:45;102210.28;;;13.43;66.51
65758;BME280;52495;52.208;5.158;2023-06-04T05:20:12;102210.25;;;13.45;67.04
65758;BME280;52495;52.208;5.158;2023-06-04T05:22:43;102212.84;;;13.45;67.09
65758;BME280;52495;52.208;5.158;2023-06-04T05:25:11;102209.28;;;13.60;66.83
65758;BME280;52495;52.208;5.158;2023-06-04T05:27:40;102211.88;;;13.58;67.24
65758;BME280;52495;52.208;5.158;2023-06-04T05:30:10;102204.88;;;13.68;66.76
65758;BME280;52495;52.208;5.158;2023-06-04T05:32:38;102205.59;;;13.86;66.26
65758;BME280;52495;52.208;5.158;2023-06-04T05:35:08;102208.19;;;13.90;66.36
65758;BME280;52495;52.208;5.158;2023-06-04T05:37:37;102206.47;;;13.85;66.55
65758;BME280;52495;52.208;5.158;2023-06-04T05:40:07;102208.16;;;13.89;66.62
65758;BME280;52495;52.208;5.158;2023-06-04T05:42:35;102214.19;;;13.94;66.47
65758;BME280;52495;52.208;5.158;2023-06-04T05:45:04;102213.25;;;14.03;66.32
65758;BME280;52495;52.208;5.158;2023-06-04T05:47:33;102216.63;;;14.11;65.96
65758;BME280;52495;52.208;5.158;2023-06-04T05:50:00;102213.81;;;14.34;64.93
65758;BME280;52495;52.208;5.158;2023-06-04T05:52:28;102214.56;;;14.42;64.96
65758;BME280;52495;52.208;5.158;2023-06-04T05:54:55;102212.84;;;14.41;64.94
65758;BME280;52495;52.208;5.158;2023-06-04T05:57:22;102214.59;;;14.39;64.84
65758;BME280;52495;52.208;5.158;2023-06-04T05:59:49;102220.50;;;14.52;64.55
65758;BME280;52495;52.208;5.158;2023-06-04T06:02:19;102211.78;;;14.58;64.01
65758;BME280;52495;52.208;5.158;2023-06-04T06:04:46;102218.63;;;14.65;63.66
65758;BME280;52495;52.208;5.158;2023-06-04T06:07:13;102222.00;;;14.77;62.93
65758;BME280;52495;52.208;5.158;2023-06-04T06:09:40;102213.31;;;14.78;62.56
65758;BME280;52495;52.208;5.158;2023-06-04T06:12:06;102212.47;;;14.77;63.21
65758;BME280;52495;52.208;5.158;2023-06-04T06:14:36;102216.63;;;14.89;62.37
65758;BME280;52495;52.208;5.158;2023-06-04T06:17:03;102220.06;;;14.93;61.64
65758;BME280;52495;52.208;5.158;2023-06-04T06:19:32;102221.78;;;14.94;62.20
65758;BME280;52495;52.208;5.158;2023-06-04T06:21:59;102221.69;;;15.00;61.89
65758;BME280;52495;52.208;5.158;2023-06-04T06:24:27;102218.03;;;15.13;59.02
65758;BME280;52495;52.208;5.158;2023-06-04T06:26:55;102226.78;;;15.09;59.23
65758;BME280;52495;52.208;5.158;2023-06-04T06:29:22;102228.47;;;15.12;59.44
65758;BME280;52495;52.208;5.158;2023-06-04T06:31:50;102228.28;;;15.24;58.82
65758;BME280;52495;52.208;5.158;2023-06-04T06:34:17;102225.53;;;15.37;58.15
65758;BME280;52495;52.208;5.158;2023-06-04T06:37:12;102225.28;;;15.52;57.03
65758;BME280;52495;52.208;5.158;2023-06-04T06:39:39;102217.44;;;15.54;57.30
65758;BME280;52495;52.208;5.158;2023-06-04T06:42:06;102208.66;;;15.61;57.00
65758;BME280;52495;52.208;5.158;2023-06-04T06:44:37;102224.19;;;15.64;57.09
65758;BME280;52495;52.208;5.158;2023-06-04T06:47:04;102222.13;;;15.85;54.43
65758;BME280;52495;52.208;5.158;2023-06-04T06:49:31;102230.81;;;15.88;53.23
65758;BME280;52495;52.208;5.158;2023-06-04T06:51:59;102231.69;;;15.87;53.85
65758;BME280;52495;52.208;5.158;2023-06-04T06:54:26;102231.47;;;16.00;52.86
65758;BME280;52495;52.208;5.158;2023-06-04T06:56:53;102232.25;;;16.03;52.97
65758;BME280;52495;52.208;5.158;2023-06-04T06:59:20;102228.81;;;16.01;53.40
65758;BME280;52495;52.208;5.158;2023-06-04T07:01:47;102229.50;;;16.13;53.04
65758;BME280;52495;52.208;5.158;2023-06-04T07:04:13;102223.22;;;16.23;51.94
65758;BME280;52495;52.208;5.158;2023-06-04T07:06:41;102235.91;;;16.40;50.62
65758;BME280;52495;52.208;5.158;2023-06-04T07:09:10;102231.63;;;16.37;50.94
65758;BME280;52495;52.208;5.158;2023-06-04T07:11:36;102239.41;;;16.41;50.77
65758;BME280;52495;52.208;5.158;2023-06-04T07:14:03;102228.63;;;16.58;49.94
65758;BME280;52495;52.208;5.158;2023-06-04T07:16:30;102235.25;;;16.74;49.56
65758;BME280;52495;52.208;5.158;2023-06-04T07:18:57;102228.34;;;16.73;49.37
65758;BME280;52495;52.208;5.158;2023-06-04T07:21:24;102230.97;;;16.72;49.59
65758;BME280;52495;52.208;5.158;2023-06-04T07:23:51;102237.69;;;16.83;48.87
65758;BME280;52495;52.208;5.158;2023-06-04T07:26:19;102240.34;;;16.80;49.17
65758;BME280;52495;52.208;5.158;2023-06-04T07:28:46;102243.78;;;16.82;49.57
65758;BME280;52495;52.208;5.158;2023-06-04T07:31:15;102248.06;;;16.87;49.23
65758;BME280;52495;52.208;5.158;2023-06-04T07:33:42;102243.56;;;16.92;49.54
65758;BME280;52495;52.208;5.158;2023-06-04T07:36:10;102241.38;;;17.16;49.32
65758;BME280;52495;52.208;5.158;2023-06-04T07:38:37;102245.47;;;17.26;48.82
65758;BME280;52495;52.208;5.158;2023-06-04T07:41:04;102253.41;;;17.23;49.22
65758;BME280;52495;52.208;5.158;2023-06-04T07:43:37;102236.69;;;17.30;48.60
65758;BME280;52495;52.208;5.158;2023-06-04T07:46:04;102238.44;;;17.29;48.94
65758;BME280;52495;52.208;5.158;2023-06-04T07:48:41;102248.53;;;17.45;49.34
65758;BME280;52495;52.208;5.158;2023-06-04T07:51:07;102242.03;;;17.62;47.67
65758;BME280;52495;52.208;5.158;2023-06-04T07:53:35;102240.38;;;17.59;47.81
65758;BME280;52495;52.208;5.158;2023-06-04T07:56:04;102242.88;;;17.62;48.19
65758;BME280;52495;52.208;5.158;2023-06-04T07:58:31;102233.06;;;17.72;48.34
65758;BME280;52495;52.208;5.158;2023-06-04T08:00:59;102233.59;;;17.86;48.45
65758;BME280;52495;52.208;5.158;2023-06-04T08:03:26;102232.63;;;17.90;48.34
65758;BME280;52495;52.208;5.158;2023-06-04T08:05:52;102241.03;;;18.03;47.82
65758;BME280;52495;52.208;5.158;2023-06-04T08:08:19;102238.06;;;18.17;47.51
65758;BME280;52495;52.208;5.158;2023-06-04T08:10:46;102240.56;;;18.20;46.81
65758;BME280;52495;52.208;5.158;2023-06-04T08:13:14;102235.31;;;18.22;46.78
65758;BME280;52495;52.208;5.158;2023-06-04T08:15:40;102240.34;;;18.28;47.06
65758;BME280;52495;52.208;5.158;2023-06-04T08:18:09;102236.00;;;18.29;46.76
65758;BME280;52495;52.208;5.158;2023-06-04T08:20:35;102233.22;;;18.35;46.42
65758;BME280;52495;52.208;5.158;2023-06-04T08:23:02;102238.56;;;18.30;47.42
65758;BME280;52495;52.208;5.158;2023-06-04T08:25:29;102245.06;;;18.48;45.75
65758;BME280;52495;52.208;5.158;2023-06-04T08:27:57;102239.78;;;18.50;45.57
65758;BME280;52495;52.208;5.158;2023-06-04T08:30:25;102245.19;;;18.44;46.34
65758;BME280;52495;52.208;5.158;2023-06-04T08:32:53;102242.38;;;18.50;46.38
65758;BME280;52495;52.208;5.158;2023-06-04T08:35:21;102244.06;;;18.53;46.42
65758;BME280;52495;52.208;5.158;2023-06-04T08:37:48;102240.44;;;18.58;45.65
65758;BME280;52495;52.208;5.158;2023-06-04T08:40:15;102246.25;;;18.68;44.82
65758;BME280;52495;52.208;5.158;2023-06-04T08:42:43;102248.81;;;18.70;44.77
65758;BME280;52495;52.208;5.158;2023-06-04T08:45:14;102249.56;;;18.73;44.39
65758;BME280;52495;52.208;5.158;2023-06-04T08:47:43;102240.66;;;18.80;45.33
65758;BME280;52495;52.208;5.158;2023-06-04T08:50:15;102240.00;;;19.04;43.55
65758;BME280;52495;52.208;5.158;2023-06-04T08:52:45;102242.94;;;19.21;43.81
65758;BME280;52495;52.208;5.158;2023-06-04T08:55:13;102248.09;;;19.24;43.93
65758;BME280;52495;52.208;5.158;2023-06-04T08:57:42;102244.56;;;19.25;43.02
65758;BME280;52495;52.208;5.158;2023-06-04T09:00:11;102230.59;;;19.25;43.92
65758;BME280;52495;52.208;5.158;2023-06-04T09:02:38;102240.97;;;19.30;44.70
65758;BME280;52495;52.208;5.158;2023-06-04T09:05:06;102247.41;;;19.46;43.70
65758;BME280;52495;52.208;5.158;2023-06-04T09:07:36;102242.63;;;19.59;43.67
65758;BME280;52495;52.208;5.158;2023-06-04T09:10:06;102250.69;;;19.80;42.80
65758;BME280;52495;52.208;5.158;2023-06-04T09:12:36;102242.81;;;19.80;41.67
65758;BME280;52495;52.208;5.158;2023-06-04T09:15:05;102236.91;;;19.73;42.77
65758;BME280;52495;52.208;5.158;2023-06-04T09:17:33;102236.56;;;19.84;42.98
65758;BME280;52495;52.208;5.158;2023-06-04T09:20:00;102238.03;;;19.93;42.46
65758;BME280;52495;52.208;5.158;2023-06-04T09:22:37;102238.16;;;19.90;42.63
65758;BME280;52495;52.208;5.158;2023-06-04T09:25:07;102232.00;;;19.91;42.86
65758;BME280;52495;52.208;5.158;2023-06-04T09:27:45;102238.75;;;19.98;42.72
65758;BME280;52495;52.208;5.158;2023-06-04T09:30:12;102233.81;;;20.14;42.35
65758;BME280;52495;52.208;5.158;2023-06-04T09:32:39;102229.72;;;20.30;41.92
65758;BME280;52495;52.208;5.158;2023-06-04T09:35:11;102235.50;;;20.40;42.20
65758;BME280;52495;52.208;5.158;2023-06-04T09:37:38;102244.19;;;20.42;41.48
65758;BME280;52495;52.208;5.158;2023-06-04T09:40:08;102241.34;;;20.49;40.99
65758;BME280;52495;52.208;5.158;2023-06-04T09:42:42;102247.22;;;20.55;41.26
65758;BME280;52495;52.208;5.158;2023-06-04T09:45:10;102239.34;;;20.55;40.55
65758;BME280;52495;52.208;5.158;2023-06-04T09:47:41;102242.88;;;20.54;41.43
65758;BME280;52495;52.208;5.158;2023-06-04T09:50:11;102243.38;;;20.64;40.84
65758;BME280;52495;52.208;5.158;2023-06-04T09:52:38;102245.50;;;20.78;40.88
65758;BME280;52495;52.208;5.158;2023-06-04T09:55:16;102245.06;;;20.90;40.73
65758;BME280;52495;52.208;5.158;2023-06-04T09:57:46;102243.78;;;21.01;38.44
65758;BME280;52495;52.208;5.158;2023-06-04T10:00:17;102239.50;;;20.98;39.99
65758;BME280;52495;52.208;5.158;2023-06-04T10:02:44;102229.63;;;21.05;39.81
65758;BME280;52495;52.208;5.158;2023-06-04T10:05:13;102234.38;;;21.17;39.91
65758;BME280;52495;52.208;5.158;2023-06-04T10:07:43;102248.72;;;21.31;38.94
65758;BME280;52495;52.208;5.158;2023-06-04T10:10:13;102241.41;;;21.17;39.22
65758;BME280;52495;52.208;5.158;2023-06-04T10:12:43;102241.41;;;21.17;38.76
65758;BME280;52495;52.208;5.158;2023-06-04T10:15:12;102240.19;;;21.26;38.76
65758;BME280;52495;52.208;5.158;2023-06-04T10:17:40;102244.56;;;21.47;38.60
65758;BME280;52495;52.208;5.158;2023-06-04T10:20:07;102237.09;;;21.59;38.63
65758;BME280;52495;52.208;5.158;2023-06-04T10:22:37;102235.63;;;21.74;38.69
65758;BME280;52495;52.208;5.158;2023-06-04T10:25:08;102227.47;;;21.80;37.91
65758;BME280;52495;52.208;5.158;2023-06-04T10:27:38;102228.00;;;21.88;38.69
65758;BME280;52495;52.208;5.158;2023-06-04T10:30:08;102242.34;;;22.02;38.09
65758;BME280;52495;52.208;5.158;2023-06-04T10:32:35;102236.00;;;22.06;37.77
65758;BME280;52495;52.208;5.158;2023-06-04T10:35:03;102236.91;;;22.05;37.38
65758;BME280;52495;52.208;5.158;2023-06-04T10:37:35;102226.81;;;21.95;37.91
65758;BME280;52495;52.208;5.158;2023-06-04T10:40:02;102242.81;;;21.91;37.89
65758;BME280;52495;52.208;5.158;2023-06-04T10:42:38;102236.75;;;21.89;37.80
65758;BME280;52495;52.208;5.158;2023-06-04T10:45:09;102235.41;;;21.99;38.12
65758;BME280;52495;52.208;5.158;2023-06-04T10:47:37;102236.88;;;22.06;37.14
65758;BME280;52495;52.208;5.158;2023-06-04T10:50:10;102230.94;;;22.01;36.57
65758;BME280;52495;52.208;5.158;2023-06-04T10:52:38;102237.72;;;22.07;36.86
65758;BME280;52495;52.208;5.158;2023-06-04T10:55:07;102233.53;;;22.03;35.72
65758;BME280;52495;52.208;5.158;2023-06-04T10:57:34;102230.56;;;21.90;36.74
65758;BME280;52495;52.208;5.158;2023-06-04T11:00:02;102237.34;;;21.95;36.15
65758;BME280;52495;52.208;5.158;2023-06-04T11:02:33;102236.66;;;22.11;36.64
65758;BME280;52495;52.208;5.158;2023-06-04T11:05:00;102237.31;;;22.37;36.81
65758;BME280;52495;52.208;5.158;2023-06-04T11:07:29;102235.75;;;22.52;35.51
65758;BME280;52495;52.208;5.158;2023-06-04T11:09:55;102224.59;;;22.47;41.83
65758;BME280;52495;52.208;5.158;2023-06-04T11:12:22;102235.19;;;22.64;40.67
65758;BME280;52495;52.208;5.158;2023-06-04T11:14:55;102233.34;;;22.66;42.44
65758;BME280;52495;52.208;5.158;2023-06-04T11:17:22;102234.50;;;22.40;45.01
65758;BME280;52495;52.208;5.158;2023-06-04T11:19:51;102218.59;;;22.03;46.11
65758;BME280;52495;52.208;5.158;2023-06-04T11:22:24;102222.72;;;22.09;45.64
65758;BME280;52495;52.208;5.158;2023-06-04T11:24:56;102221.47;;;21.97;46.29
65758;BME280;52495;52.208;5.158;2023-06-04T11:27:24;102223.94;;;22.02;46.57
65758;BME280;52495;52.208;5.158;2023-06-04T11:29:51;102218.13;;;21.93;46.96
65758;BME280;52495;52.208;5.158;2023-06-04T11:32:21;102215.75;;;21.87;47.16
65758;BME280;52495;52.208;5.158;2023-06-04T11:34:49;102209.59;;;21.88;47.10
65758;BME280;52495;52.208;5.158;2023-06-04T11:37:18;102217.88;;;21.79;47.44
65758;BME280;52495;52.208;5.158;2023-06-04T11:39:45;102209.88;;;21.82;46.55
65758;BME280;52495;52.208;5.158;2023-06-04T11:42:12;102215.50;;;21.93;45.77
65758;BME280;52495;52.208;5.158;2023-06-04T11:44:39;102212.16;;;21.90;46.65
65758;BME280;52495;52.208;5.158;2023-06-04T11:47:11;102211.03;;;21.75;46.71
65758;BME280;52495;52.208;5.158;2023-06-04T11:49:38;102217.13;;;21.96;45.86
65758;BME280;52495;52.208;5.158;2023-06-04T11:52:05;102218.81;;;21.98;46.23
65758;BME280;52495;52.208;5.158;2023-06-04T11:54:33;102220.88;;;22.11;45.62
65758;BME280;52495;52.208;5.158;2023-06-04T11:57:04;102218.97;;;22.14;45.64
65758;BME280;52495;52.208;5.158;2023-06-04T11:59:35;102206.09;;;22.08;45.64
65758;BME280;52495;52.208;5.158;2023-06-04T12:02:02;102210.91;;;21.98;45.16
65758;BME280;52495;52.208;5.158;2023-06-04T12:04:30;102202.69;;;21.86;45.37
65758;BME280;52495;52.208;5.158;2023-06-04T12:06:59;102208.03;;;21.84;45.53
65758;BME280;52495;52.208;5.158;2023-06-04T12:09:28;102195.47;;;21.70;45.20
65758;BME280;52495;52.208;5.158;2023-06-04T12:12:01;102200.09;;;21.43;45.02
65758;BME280;52495;52.208;5.158;2023-06-04T12:14:29;102195.19;;;21.56;45.35
65758;BME280;52495;52.208;5.158;2023-06-04T12:16:56;102199.03;;;21.69;45.54
65758;BME280;52495;52.208;5.158;2023-06-04T12:19:24;102198.19;;;21.68;45.11
65758;BME280;52495;52.208;5.158;2023-06-04T12:22:01;102197.06;;;21.74;45.22
65758;BME280;52495;52.208;5.158;2023-06-04T12:24:29;102210.25;;;21.73;45.31
65758;BME280;52495;52.208;5.158;2023-06-04T12:27:05;102198.19;;;21.68;44.80
65758;BME280;52495;52.208;5.158;2023-06-04T12:29:33;102208.03;;;21.84;44.84
65758;BME280;52495;52.208;5.158;2023-06-04T12:32:05;102208.41;;;21.75;44.11
65758;BME280;52495;52.208;5.158;2023-06-04T12:34:33;102204.59;;;21.61;44.02
65758;BME280;52495;52.208;5.158;2023-06-04T12:37:00;102189.06;;;21.55;44.21
65758;BME280;52495;52.208;5.158;2023-06-04T12:39:28;102205.34;;;21.43;44.65
65758;BME280;52495;52.208;5.158;2023-06-04T12:41:55;102205.56;;;21.36;44.84
65758;BME280;52495;52.208;5.158;2023-06-04T12:44:23;102204.03;;;21.75;44.10
65758;BME280;52495;52.208;5.158;2023-06-04T12:46:50;102207.94;;;21.86;43.48
65758;BME280;52495;52.208;5.158;2023-06-04T12:49:18;102222.25;;;21.35;43.97
65758;BME280;52495;52.208;5.158;2023-06-04T12:51:44;102201.16;;;21.59;43.68
65758;BME280;52495;52.208;5.158;2023-06-04T12:54:11;102192.91;;;21.68;43.91
65758;BME280;52495;52.208;5.158;2023-06-04T12:56:42;102201.13;;;21.81;43.28